createdAt,value
2022-08-26T00:00:47.600Z,75.50
2022-08-26T00:03:14.477Z,75.40
2022-08-26T00:05:42.198Z,75.50
2022-08-26T00:08:09.115Z,75.50
2022-08-26T00:10:40.590Z,75.60
2022-08-26T00:13:07.498Z,75.60
2022-08-26T00:15:35.470Z,75.60
2022-08-26T00:18:02.201Z,75.70
2022-08-26T00:20:30.907Z,75.70
2022-08-26T00:22:58.385Z,75.80
2022-08-26T00:25:25.303Z,75.80
2022-08-26T00:27:52.077Z,75.80
2022-08-26T00:30:24.484Z,75.80
2022-08-26T00:32:53.405Z,75.90
2022-08-26T00:35:20.392Z,75.90
2022-08-26T00:37:47.094Z,75.90
2022-08-26T00:40:16.962Z,75.90
2022-08-26T00:42:46.000Z,76.10
2022-08-26T00:45:13.119Z,76.10
2022-08-26T00:47:52.090Z,76.20
2022-08-26T00:50:23.475Z,76.30
2022-08-26T00:52:53.929Z,76.30
2022-08-26T00:55:24.585Z,76.20
2022-08-26T00:57:54.214Z,76.30
2022-08-26T01:00:24.455Z,76.30
2022-08-26T01:02:51.361Z,76.40
2022-08-26T01:05:18.671Z,76.40
2022-08-26T01:07:45.857Z,76.40
2022-08-26T01:10:26.337Z,76.50
2022-08-26T01:12:58.431Z,76.40
2022-08-26T01:15:27.746Z,76.40
2022-08-26T01:17:59.644Z,76.40
2022-08-26T01:20:41.606Z,76.30
2022-08-26T01:23:09.689Z,76.40
2022-08-26T01:25:39.448Z,76.30
2022-08-26T01:28:07.751Z,76.30
2022-08-26T01:30:34.571Z,76.30
2022-08-26T01:33:02.622Z,76.20
2022-08-26T01:35:29.586Z,76.30
2022-08-26T01:37:56.789Z,76.30
2022-08-26T01:40:26.457Z,76.40
2022-08-26T01:42:53.803Z,76.40
2022-08-26T01:45:25.374Z,76.40
2022-08-26T01:47:56.880Z,76.40
2022-08-26T01:50:27.711Z,76.40
2022-08-26T01:52:57.259Z,76.40
2022-08-26T01:55:27.629Z,76.40
2022-08-26T01:57:59.412Z,76.60
2022-08-26T02:00:26.743Z,76.40
2022-08-26T02:02:55.366Z,76.50
2022-08-26T02:05:22.097Z,76.60
2022-08-26T02:07:48.808Z,76.60
2022-08-26T02:10:16.124Z,76.40
2022-08-26T02:12:43.338Z,76.50
2022-08-26T02:15:11.379Z,76.50
2022-08-26T02:17:40.933Z,76.60
2022-08-26T02:20:13.371Z,76.60
2022-08-26T02:22:42.135Z,76.60
2022-08-26T02:25:15.266Z,76.50
2022-08-26T02:27:42.053Z,76.60
2022-08-26T02:30:15.293Z,76.60
2022-08-26T02:32:44.104Z,76.70
2022-08-26T02:35:11.516Z,76.70
2022-08-26T02:37:38.552Z,77.60
2022-08-26T02:40:09.592Z,76.80
2022-08-26T02:42:36.429Z,76.80
2022-08-26T02:45:05.259Z,76.80
2022-08-26T02:47:33.994Z,76.90
2022-08-26T02:50:01.513Z,76.90
2022-08-26T02:52:28.330Z,77.00
2022-08-26T02:54:55.125Z,77.10
2022-08-26T02:57:22.214Z,77.00
2022-08-26T02:59:49.009Z,77.10
2022-08-26T03:02:16.499Z,77.10
2022-08-26T03:04:57.918Z,77.20
2022-08-26T03:07:29.162Z,77.30
2022-08-26T03:09:56.704Z,77.30
2022-08-26T03:12:24.096Z,77.30
2022-08-26T03:14:52.742Z,77.30
2022-08-26T03:17:19.467Z,77.30
2022-08-26T03:19:46.233Z,77.20
2022-08-26T03:22:14.494Z,77.30
2022-08-26T03:24:41.490Z,77.40
2022-08-26T03:27:12.840Z,77.40
2022-08-26T03:29:41.273Z,77.50
2022-08-26T03:32:08.847Z,77.40
2022-08-26T03:34:36.007Z,77.40
2022-08-26T03:37:02.734Z,77.30
2022-08-26T03:39:31.727Z,77.30
2022-08-26T03:41:59.583Z,77.30
2022-08-26T03:44:26.411Z,77.30
2022-08-26T03:46:53.298Z,77.40
2022-08-26T03:49:20.101Z,77.40
2022-08-26T03:51:46.801Z,78.20
2022-08-26T03:54:13.514Z,77.40
2022-08-26T03:56:40.333Z,77.50
2022-08-26T03:59:07.480Z,77.50
2022-08-26T04:01:34.715Z,77.60
2022-08-26T04:04:01.594Z,77.60
2022-08-26T04:06:31.965Z,77.60
2022-08-26T04:09:00.136Z,77.60
2022-08-26T04:11:28.674Z,77.60
2022-08-26T04:14:00.149Z,77.60
2022-08-26T04:16:27.551Z,77.60
2022-08-26T04:18:55.141Z,77.50
2022-08-26T04:21:22.839Z,77.60
2022-08-26T04:23:49.868Z,77.40
2022-08-26T04:26:17.761Z,77.60
2022-08-26T04:28:44.541Z,77.60
2022-08-26T04:31:15.203Z,77.70
2022-08-26T04:33:42.942Z,77.70
2022-08-26T04:36:10.105Z,77.70
2022-08-26T04:38:36.865Z,77.60
2022-08-26T04:41:05.414Z,77.60
2022-08-26T04:43:32.398Z,77.70
2022-08-26T04:46:00.638Z,77.70
2022-08-26T04:48:31.441Z,77.70
2022-08-26T04:50:58.419Z,77.70
2022-08-26T04:53:25.777Z,77.60
2022-08-26T04:55:55.218Z,77.70
2022-08-26T04:58:22.631Z,77.70
2022-08-26T05:00:51.032Z,77.70
2022-08-26T05:03:18.188Z,77.70
2022-08-26T05:05:45.984Z,77.70
2022-08-26T05:08:13.709Z,77.80
2022-08-26T05:10:45.127Z,77.90
2022-08-26T05:13:16.586Z,77.90
2022-08-26T05:15:43.565Z,77.80
2022-08-26T05:18:10.543Z,77.80
2022-08-26T05:20:43.638Z,77.90
2022-08-26T05:23:11.990Z,78.00
2022-08-26T05:25:39.809Z,78.00
2022-08-26T05:28:06.528Z,78.00
2022-08-26T05:30:33.253Z,78.00
2022-08-26T05:33:01.136Z,78.10
2022-08-26T05:35:29.995Z,78.10
2022-08-26T05:37:59.073Z,78.20
2022-08-26T05:40:25.859Z,78.10
2022-08-26T05:42:52.873Z,78.30
2022-08-26T05:45:20.175Z,78.40
2022-08-26T05:47:47.003Z,78.30
2022-08-26T05:50:14.262Z,78.40
2022-08-26T05:52:41.153Z,78.50
2022-08-26T05:55:08.309Z,78.60
2022-08-26T05:57:39.959Z,78.80
2022-08-26T06:00:09.954Z,78.70
2022-08-26T06:02:36.746Z,79.00
2022-08-26T06:05:03.732Z,79.00
2022-08-26T06:07:34.537Z,78.90
2022-08-26T06:10:28.335Z,79.00
2022-08-26T06:12:47.953Z,78.80
2022-08-26T06:15:15.063Z,78.60
2022-08-26T06:17:42.541Z,78.70
2022-08-26T06:20:09.909Z,78.80
2022-08-26T06:22:36.694Z,78.70
2022-08-26T06:25:03.535Z,78.90
2022-08-26T06:27:32.936Z,78.90
2022-08-26T06:29:59.738Z,78.90
2022-08-26T06:32:26.934Z,78.80
2022-08-26T06:34:53.638Z,78.90
2022-08-26T06:37:20.414Z,78.90
2022-08-26T06:39:47.796Z,78.90
2022-08-26T06:42:18.055Z,78.80
2022-08-26T06:44:45.082Z,78.90
2022-08-26T06:47:11.949Z,78.90
2022-08-26T06:49:38.735Z,78.90
2022-08-26T06:52:06.548Z,79.00
2022-08-26T06:54:33.404Z,79.10
2022-08-26T06:57:00.362Z,79.10
2022-08-26T06:59:27.178Z,79.30
2022-08-26T07:01:54.171Z,79.10
2022-08-26T07:04:22.480Z,79.20
2022-08-26T07:06:50.303Z,79.20
2022-08-26T07:09:23.592Z,79.20
2022-08-26T07:11:50.565Z,79.30
2022-08-26T07:14:17.608Z,79.30
2022-08-26T07:16:48.810Z,79.40
2022-08-26T07:19:15.732Z,79.40
2022-08-26T07:21:43.745Z,79.50
2022-08-26T07:24:11.207Z,79.40
2022-08-26T07:26:38.263Z,79.40
2022-08-26T07:29:05.016Z,79.30
2022-08-26T07:31:39.367Z,79.20
2022-08-26T07:34:09.355Z,79.00
2022-08-26T07:36:36.490Z,79.00
2022-08-26T07:39:03.457Z,78.80
2022-08-26T07:44:02.359Z,78.60
2022-08-26T07:46:31.095Z,78.40
2022-08-26T07:48:58.066Z,78.20
2022-08-26T07:51:27.912Z,78.00
2022-08-26T07:53:54.795Z,77.90
2022-08-26T07:56:22.102Z,77.80
2022-08-26T07:58:51.409Z,77.70
2022-08-26T08:01:19.758Z,77.40
2022-08-26T08:03:50.429Z,77.10
2022-08-26T08:06:21.343Z,76.90
2022-08-26T08:08:50.905Z,76.60
2022-08-26T08:11:20.275Z,76.40
2022-08-26T08:13:55.996Z,76.10
2022-08-26T08:16:26.706Z,75.90
2022-08-26T08:18:55.309Z,75.70
2022-08-26T08:21:30.004Z,75.50
2022-08-26T08:23:57.136Z,75.10
2022-08-26T08:26:24.824Z,74.90
2022-08-26T08:28:54.141Z,74.50
2022-08-26T08:31:56.499Z,74.10
2022-08-26T08:34:37.089Z,73.80
2022-08-26T08:37:07.352Z,73.80
2022-08-26T08:39:42.165Z,73.80
2022-08-26T08:42:10.588Z,73.50
2022-08-26T08:44:38.488Z,73.30
2022-08-26T08:47:10.165Z,73.10
2022-08-26T08:49:37.068Z,72.80
2022-08-26T08:52:08.979Z,72.50
2022-08-26T08:54:38.266Z,72.20
2022-08-26T08:57:05.146Z,72.00
2022-08-26T08:59:34.143Z,71.60
2022-08-26T09:02:39.799Z,71.30
2022-08-26T09:05:23.890Z,70.60
2022-08-26T09:08:32.502Z,70.40
2022-08-26T09:11:01.636Z,70.20
2022-08-26T09:13:32.079Z,70.00
2022-08-26T09:16:14.005Z,69.70
2022-08-26T09:19:12.493Z,69.50
2022-08-26T09:21:39.249Z,69.40
2022-08-26T09:24:06.223Z,69.20
2022-08-26T09:26:39.298Z,68.90
2022-08-26T09:29:27.394Z,68.40
2022-08-26T09:32:14.490Z,68.20
2022-08-26T09:34:55.449Z,67.60
2022-08-26T09:37:41.839Z,67.20
2022-08-26T09:40:22.780Z,67.00
2022-08-26T09:43:22.816Z,66.40
2022-08-26T09:45:58.444Z,66.10
2022-08-26T09:48:36.189Z,66.10
2022-08-26T09:51:05.275Z,65.70
2022-08-26T09:53:37.083Z,65.70
2022-08-26T09:56:27.613Z,65.30
2022-08-26T09:58:54.718Z,64.90
2022-08-26T10:01:35.185Z,64.90
2022-08-26T10:04:14.440Z,64.50
2022-08-26T10:06:57.717Z,64.00
2022-08-26T10:09:24.783Z,63.60
2022-08-26T10:11:56.882Z,63.50
2022-08-26T10:14:32.875Z,62.90
2022-08-26T10:17:46.620Z,62.60
2022-08-26T10:20:23.533Z,62.20
2022-08-26T10:23:01.447Z,62.00
2022-08-26T10:25:33.818Z,61.50
2022-08-26T10:28:08.891Z,61.40
2022-08-26T10:30:57.048Z,62.00
2022-08-26T10:33:23.828Z,61.10
2022-08-26T10:35:55.875Z,60.80
2022-08-26T10:38:45.342Z,60.90
2022-08-26T10:41:18.045Z,59.60
2022-08-26T10:43:59.232Z,58.80
2022-08-26T10:46:30.081Z,57.80
2022-08-26T10:49:08.904Z,57.40
2022-08-26T10:51:38.731Z,56.00
2022-08-26T10:54:10.809Z,55.60
2022-08-26T10:57:17.826Z,54.50
2022-08-26T11:00:04.437Z,53.10
2022-08-26T11:02:47.425Z,53.10
2022-08-26T11:05:19.007Z,52.30
2022-08-26T11:07:47.242Z,52.50
2022-08-26T11:10:22.085Z,52.30
2022-08-26T11:13:02.351Z,51.00
2022-08-26T11:15:29.519Z,49.90
2022-08-26T11:18:23.041Z,50.30
2022-08-26T11:20:51.911Z,49.80
2022-08-26T11:23:21.789Z,50.40
2022-08-26T11:26:10.168Z,50.50
2022-08-26T11:28:44.523Z,49.80
2022-08-26T11:31:40.378Z,49.40
2022-08-26T11:34:10.799Z,48.80
2022-08-26T11:36:51.994Z,49.00
2022-08-26T11:39:25.749Z,48.30
2022-08-26T11:41:53.973Z,47.50
2022-08-26T11:44:25.540Z,45.90
2022-08-26T11:46:57.381Z,45.00
2022-08-26T11:49:24.115Z,44.20
2022-08-26T11:51:51.416Z,44.20
2022-08-26T11:54:30.530Z,43.80
2022-08-26T11:57:07.803Z,42.60
2022-08-26T11:59:37.911Z,41.80
2022-08-26T12:02:04.825Z,41.10
2022-08-26T12:04:33.146Z,41.20
2022-08-26T12:07:00.628Z,41.00
2022-08-26T12:09:30.111Z,42.20
2022-08-26T12:12:23.957Z,41.60
2022-08-26T12:15:16.044Z,41.50
2022-08-26T12:17:43.453Z,42.20
2022-08-26T12:20:36.170Z,43.20
2022-08-26T12:23:03.006Z,43.00
2022-08-26T12:25:35.914Z,43.00
2022-08-26T12:28:04.118Z,42.80
2022-08-26T12:30:31.093Z,43.00
2022-08-26T12:33:22.074Z,43.00
2022-08-26T12:35:56.552Z,42.70
2022-08-26T12:38:24.933Z,41.70
2022-08-26T12:40:51.824Z,40.10
2022-08-26T12:44:03.777Z,39.00
2022-08-26T12:46:30.592Z,37.60
2022-08-26T12:48:57.456Z,36.80
2022-08-26T12:51:26.348Z,35.50
2022-08-26T12:53:53.446Z,34.80
2022-08-26T12:56:21.653Z,34.10
2022-08-26T12:59:01.438Z,33.30
2022-08-26T13:01:29.729Z,32.30
2022-08-26T13:03:56.567Z,32.40
2022-08-26T13:06:23.448Z,32.00
2022-08-26T13:08:50.236Z,31.50
2022-08-26T13:11:22.622Z,30.80
2022-08-26T13:14:06.898Z,29.90
2022-08-26T13:16:34.747Z,29.70
2022-08-26T13:19:04.211Z,29.60
2022-08-26T13:21:37.269Z,29.30
2022-08-26T13:24:09.844Z,28.60
2022-08-26T13:26:36.795Z,28.50
2022-08-26T13:29:07.204Z,28.50
2022-08-26T13:31:37.948Z,28.00
2022-08-26T13:34:05.123Z,28.00
2022-08-26T13:36:32.179Z,27.90
2022-08-26T13:38:59.173Z,27.70
2022-08-26T13:41:29.469Z,27.30
2022-08-26T13:43:58.189Z,27.50
2022-08-26T13:46:27.197Z,27.00
2022-08-26T13:48:54.184Z,26.60
2022-08-26T13:51:21.792Z,26.40
2022-08-26T13:53:51.340Z,26.10
2022-08-26T13:56:18.561Z,25.70
2022-08-26T13:58:46.149Z,25.50
2022-08-26T14:01:13.445Z,25.40
2022-08-26T14:03:40.448Z,25.50
2022-08-26T14:06:07.443Z,25.30
2022-08-26T14:08:34.271Z,24.90
2022-08-26T14:11:04.441Z,24.50
2022-08-26T14:13:31.288Z,24.40
2022-08-26T14:15:58.459Z,24.20
2022-08-26T14:18:29.755Z,23.90
2022-08-26T14:20:57.208Z,23.70
2022-08-26T14:23:24.360Z,23.90
2022-08-26T14:25:52.386Z,23.70
2022-08-26T14:28:19.356Z,23.70
2022-08-26T14:30:50.712Z,23.80
2022-08-26T14:33:17.506Z,23.50
2022-08-26T14:35:49.055Z,23.50
2022-08-26T14:38:16.817Z,23.50
2022-08-26T14:40:43.763Z,23.40
2022-08-26T14:43:11.694Z,23.60
2022-08-26T14:48:09.800Z,25.10
2022-08-26T14:50:36.942Z,25.90
2022-08-26T14:53:03.981Z,26.50
2022-08-26T14:55:32.807Z,27.10
2022-08-26T14:57:59.715Z,27.60
2022-08-26T15:00:26.926Z,28.20
2022-08-26T15:02:53.962Z,28.00
2022-08-26T15:05:20.990Z,27.30
2022-08-26T15:07:47.974Z,26.80
2022-08-26T15:10:15.104Z,26.30
2022-08-26T15:12:42.139Z,25.90
2022-08-26T15:15:10.339Z,25.60
2022-08-26T15:17:37.698Z,25.10
2022-08-26T15:20:05.270Z,24.70
2022-08-26T15:22:32.145Z,24.50
2022-08-26T15:24:59.010Z,24.40
2022-08-26T15:27:25.978Z,24.40
2022-08-26T15:29:53.003Z,24.60
2022-08-26T15:32:21.353Z,24.90
2022-08-26T15:34:48.377Z,25.20
2022-08-26T15:37:15.461Z,25.80
2022-08-26T15:39:42.383Z,26.30
2022-08-26T15:42:09.433Z,26.60
2022-08-26T15:44:36.232Z,27.20
2022-08-26T15:47:03.146Z,27.10
2022-08-26T15:49:30.099Z,27.10
2022-08-26T15:51:56.970Z,27.20
2022-08-26T15:54:23.837Z,27.20
2022-08-26T15:56:51.053Z,27.40
2022-08-26T15:59:18.712Z,27.60
2022-08-26T16:01:45.696Z,28.00
2022-08-26T16:04:12.858Z,28.30
2022-08-26T16:06:40.218Z,28.60
2022-08-26T16:09:07.175Z,29.00
2022-08-26T16:11:34.658Z,29.40
2022-08-26T16:14:01.825Z,29.70
2022-08-26T16:16:28.818Z,29.90
2022-08-26T16:18:55.973Z,30.00
2022-08-26T16:21:24.593Z,30.30
2022-08-26T16:23:51.593Z,30.80
2022-08-26T16:26:20.231Z,31.00
2022-08-26T16:28:47.064Z,31.30
2022-08-26T16:31:14.111Z,31.70
2022-08-26T16:33:41.133Z,31.90
2022-08-26T16:36:08.648Z,32.10
2022-08-26T16:38:35.635Z,32.30
2022-08-26T16:41:02.515Z,32.50
2022-08-26T16:43:29.640Z,32.60
2022-08-26T16:45:56.700Z,32.80
2022-08-26T16:48:23.809Z,33.00
2022-08-26T16:50:51.755Z,33.40
2022-08-26T16:53:19.063Z,33.60
2022-08-26T16:55:47.110Z,33.90
2022-08-26T16:58:14.015Z,34.00
2022-08-26T17:00:40.862Z,34.20
2022-08-26T17:03:07.756Z,34.30
2022-08-26T17:05:35.005Z,34.30
2022-08-26T17:08:01.928Z,34.60
2022-08-26T17:10:29.089Z,34.70
2022-08-26T17:12:55.938Z,35.00
2022-08-26T17:15:23.139Z,35.10
2022-08-26T17:17:51.562Z,35.20
2022-08-26T17:20:18.554Z,35.30
2022-08-26T17:22:46.949Z,35.40
2022-08-26T17:25:16.139Z,35.60
2022-08-26T17:27:43.318Z,35.80
2022-08-26T17:30:10.865Z,36.00
2022-08-26T17:32:37.752Z,36.20
2022-08-26T17:35:04.917Z,36.50
2022-08-26T17:37:31.957Z,36.90
2022-08-26T17:39:58.759Z,36.90
2022-08-26T17:42:31.498Z,37.00
2022-08-26T17:44:59.052Z,37.10
2022-08-26T17:47:26.012Z,37.30
2022-08-26T17:49:52.829Z,37.30
2022-08-26T17:52:19.770Z,37.50
2022-08-26T17:54:46.832Z,37.70
2022-08-26T17:57:13.778Z,37.90
2022-08-26T17:59:43.902Z,38.00
2022-08-26T18:02:13.083Z,38.20
2022-08-26T18:04:39.871Z,37.90
2022-08-26T18:07:06.676Z,38.20
2022-08-26T18:09:33.761Z,38.20
2022-08-26T18:12:00.566Z,38.40
2022-08-26T18:14:27.507Z,38.70
2022-08-26T18:16:54.574Z,38.80
2022-08-26T18:19:21.569Z,39.00
2022-08-26T18:21:48.415Z,39.20
2022-08-26T18:24:15.295Z,39.30
2022-08-26T18:26:42.452Z,39.50
2022-08-26T18:29:09.435Z,39.70
2022-08-26T18:31:36.296Z,39.80
2022-08-26T18:34:03.347Z,39.90
2022-08-26T18:36:32.843Z,40.00
2022-08-26T18:38:59.715Z,40.00
2022-08-26T18:41:29.789Z,40.00
2022-08-26T18:43:56.702Z,40.10
2022-08-26T18:46:24.185Z,40.20
2022-08-26T18:48:52.203Z,40.20
2022-08-26T18:51:24.019Z,40.40
2022-08-26T18:53:51.077Z,40.50
2022-08-26T18:56:18.781Z,40.70
2022-08-26T18:58:45.906Z,41.00
2022-08-26T19:01:12.805Z,41.10
2022-08-26T19:03:39.806Z,41.20
2022-08-26T19:06:06.741Z,41.40
2022-08-26T19:08:33.486Z,41.50
2022-08-26T19:11:00.502Z,41.70
2022-08-26T19:13:27.377Z,41.80
2022-08-26T19:15:54.153Z,41.90
2022-08-26T19:18:21.202Z,42.20
2022-08-26T19:20:48.241Z,42.50
2022-08-26T19:23:31.021Z,43.00
2022-08-26T19:25:58.648Z,43.30
2022-08-26T19:28:25.574Z,43.70
2022-08-26T19:30:53.396Z,44.00
2022-08-26T19:33:24.994Z,44.20
2022-08-26T19:35:51.754Z,44.50
2022-08-26T19:38:27.842Z,44.70
2022-08-26T19:40:54.668Z,45.00
2022-08-26T19:43:21.403Z,45.20
2022-08-26T19:45:49.530Z,45.50
2022-08-26T19:48:16.578Z,45.70
2022-08-26T19:50:46.695Z,46.10
2022-08-26T19:53:19.652Z,46.40
2022-08-26T19:55:46.783Z,46.60
2022-08-26T19:58:13.536Z,47.00
2022-08-26T20:00:40.378Z,47.10
2022-08-26T20:03:07.159Z,47.50
2022-08-26T20:05:37.374Z,47.80
2022-08-26T20:08:06.512Z,48.10
2022-08-26T20:10:33.352Z,48.30
2022-08-26T20:13:00.169Z,48.40
2022-08-26T20:15:31.596Z,48.80
2022-08-26T20:17:58.340Z,49.00
2022-08-26T20:20:33.201Z,49.30
2022-08-26T20:23:01.449Z,49.40
2022-08-26T20:25:28.421Z,49.60
2022-08-26T20:27:55.270Z,49.70
2022-08-26T20:30:24.982Z,50.00
2022-08-26T20:32:51.820Z,50.20
2022-08-26T20:35:18.713Z,50.40
2022-08-26T20:37:45.462Z,50.70
2022-08-26T20:40:13.157Z,50.80
2022-08-26T20:42:40.308Z,51.00
2022-08-26T20:45:07.648Z,51.30
2022-08-26T20:47:37.692Z,51.50
2022-08-26T20:50:05.068Z,51.80
2022-08-26T20:52:31.872Z,51.90
2022-08-26T20:54:58.661Z,52.10
2022-08-26T20:57:25.522Z,52.30
2022-08-26T20:59:52.419Z,52.50
2022-08-26T21:02:19.332Z,52.70
2022-08-26T21:04:46.127Z,52.90
2022-08-26T21:07:13.045Z,53.00
2022-08-26T21:09:39.816Z,53.20
2022-08-26T21:12:06.767Z,53.40
2022-08-26T21:14:33.559Z,53.50
2022-08-26T21:17:00.360Z,53.60
2022-08-26T21:19:27.197Z,53.80
2022-08-26T21:21:54.015Z,53.90
2022-08-26T21:24:21.021Z,54.00
2022-08-26T21:26:47.843Z,54.20
2022-08-26T21:29:14.665Z,55.00
2022-08-26T21:31:46.185Z,54.40
2022-08-26T21:34:15.204Z,54.60
2022-08-26T21:36:42.005Z,54.70
2022-08-26T21:39:11.691Z,54.80
2022-08-26T21:41:39.065Z,55.00
2022-08-26T21:44:05.933Z,56.00
2022-08-26T21:46:32.759Z,55.40
2022-08-26T21:49:01.363Z,55.50
2022-08-26T21:51:30.448Z,55.50
2022-08-26T21:53:57.830Z,55.70
2022-08-26T21:56:25.813Z,55.70
2022-08-26T21:58:53.470Z,55.90
2022-08-26T22:01:23.087Z,56.00
2022-08-26T22:03:50.393Z,56.20
2022-08-26T22:06:17.829Z,56.20
2022-08-26T22:08:44.832Z,56.30
2022-08-26T22:11:11.776Z,56.50
2022-08-26T22:13:39.343Z,56.60
2022-08-26T22:16:06.517Z,56.80
2022-08-26T22:18:33.680Z,56.90
2022-08-26T22:21:02.350Z,57.10
2022-08-26T22:23:29.447Z,57.20
2022-08-26T22:25:56.396Z,57.20
2022-08-26T22:28:23.280Z,57.30
2022-08-26T22:30:50.097Z,57.50
2022-08-26T22:33:17.096Z,57.60
2022-08-26T22:35:47.198Z,57.80
2022-08-26T22:38:14.202Z,58.00
2022-08-26T22:40:45.510Z,58.10
2022-08-26T22:43:12.400Z,58.40
2022-08-26T22:45:46.384Z,58.30
2022-08-26T22:48:14.637Z,58.50
2022-08-26T22:50:45.472Z,58.60
2022-08-26T22:53:12.810Z,58.80
2022-08-26T22:55:39.707Z,58.90
2022-08-26T22:58:06.750Z,58.90
2022-08-26T23:00:33.872Z,58.90
2022-08-26T23:03:01.743Z,59.10
2022-08-26T23:05:28.604Z,59.20
2022-08-26T23:07:55.417Z,59.40
2022-08-26T23:10:22.399Z,59.40
2022-08-26T23:12:49.156Z,59.50
2022-08-26T23:15:15.972Z,59.60
2022-08-26T23:17:45.100Z,59.80
2022-08-26T23:20:12.314Z,59.90
2022-08-26T23:22:39.318Z,60.00
2022-08-26T23:25:07.778Z,60.10
2022-08-26T23:27:39.117Z,60.40
2022-08-26T23:30:07.546Z,60.60
2022-08-26T23:32:34.595Z,60.70
2022-08-26T23:35:01.392Z,60.80
2022-08-26T23:37:33.236Z,60.80
2022-08-26T23:40:08.558Z,60.90
2022-08-26T23:42:35.427Z,61.10
2022-08-26T23:45:06.460Z,61.10
2022-08-26T23:47:33.481Z,61.30
2022-08-26T23:50:00.279Z,61.30
2022-08-26T23:52:27.275Z,61.60
2022-08-26T23:54:54.157Z,61.50
2022-08-26T23:57:22.339Z,61.50
2022-08-26T23:59:49.160Z,61.80
